createdAt,value
2023-11-03T00:00:01.452Z,100.00
2023-11-03T00:02:31.459Z,100.00
2023-11-03T00:05:02.665Z,100.00
2023-11-03T00:07:32.349Z,100.00
2023-11-03T00:09:59.015Z,100.00
2023-11-03T00:12:25.826Z,100.00
2023-11-03T00:14:52.373Z,100.00
2023-11-03T00:27:58.013Z,100.00
2023-11-03T00:30:24.520Z,100.00
2023-11-03T00:32:51.084Z,100.00
2023-11-03T00:35:17.647Z,100.00
2023-11-03T00:37:45.792Z,100.00
2023-11-03T00:40:14.483Z,100.00
2023-11-03T00:42:41.225Z,100.00
2023-11-03T00:45:08.009Z,100.00
2023-11-03T00:47:34.731Z,100.00
2023-11-03T00:50:01.222Z,100.00
2023-11-03T00:52:27.801Z,100.00
2023-11-03T00:54:54.920Z,100.00
2023-11-03T00:57:21.577Z,100.00
2023-11-03T00:59:50.611Z,100.00
2023-11-03T01:02:18.665Z,100.00
2023-11-03T01:04:45.462Z,100.00
2023-11-03T01:07:12.067Z,100.00
2023-11-03T01:09:39.456Z,100.00
2023-11-03T01:12:08.203Z,100.00
2023-11-03T01:14:35.195Z,100.00
2023-11-03T01:17:03.639Z,100.00
2023-11-03T01:19:32.161Z,100.00
2023-11-03T01:22:00.707Z,100.00
2023-11-03T01:24:27.449Z,100.00
2023-11-03T01:26:53.999Z,100.00
2023-11-03T01:29:21.425Z,100.00
2023-11-03T01:31:47.944Z,100.00
2023-11-03T01:34:14.947Z,100.00
2023-11-03T01:36:41.569Z,100.00
2023-11-03T01:39:09.439Z,100.00
2023-11-03T01:41:36.046Z,100.00
2023-11-03T01:44:13.223Z,100.00
2023-11-03T01:46:41.621Z,100.00
2023-11-03T01:49:10.692Z,100.00
2023-11-03T01:51:38.606Z,100.00
2023-11-03T01:54:06.249Z,100.00
2023-11-03T01:56:36.022Z,100.00
2023-11-03T01:59:04.165Z,100.00
2023-11-03T02:01:31.078Z,100.00
2023-11-03T02:03:57.762Z,100.00
2023-11-03T02:06:24.377Z,100.00
2023-11-03T02:08:51.012Z,100.00
2023-11-03T02:11:25.337Z,100.00
2023-11-03T02:13:51.819Z,100.00
2023-11-03T02:16:18.558Z,100.00
2023-11-03T02:18:45.159Z,100.00
2023-11-03T02:21:11.748Z,100.00
2023-11-03T02:23:38.233Z,100.00
2023-11-03T02:26:05.067Z,100.00
2023-11-03T02:28:31.571Z,100.00
2023-11-03T02:30:58.137Z,100.00
2023-11-03T02:33:24.648Z,100.00
2023-11-03T02:35:51.145Z,100.00
2023-11-03T02:38:18.099Z,100.00
2023-11-03T02:40:46.401Z,100.00
2023-11-03T02:43:13.003Z,100.00
2023-11-03T02:45:39.935Z,100.00
2023-11-03T02:48:07.109Z,100.00
2023-11-03T02:50:33.666Z,100.00
2023-11-03T02:53:00.163Z,100.00
2023-11-03T02:55:26.623Z,100.00
2023-11-03T02:57:53.112Z,100.00
2023-11-03T03:00:19.997Z,100.00
2023-11-03T03:02:46.586Z,100.00
2023-11-03T03:05:13.086Z,100.00
2023-11-03T03:07:40.504Z,100.00
2023-11-03T03:10:07.882Z,100.00
2023-11-03T03:12:34.524Z,100.00
2023-11-03T03:15:01.029Z,100.00
2023-11-03T03:17:27.585Z,100.00
2023-11-03T03:19:54.087Z,100.00
2023-11-03T03:22:20.597Z,100.00
2023-11-03T03:24:47.564Z,100.00
2023-11-03T03:27:14.121Z,100.00
2023-11-03T03:29:40.588Z,100.00
2023-11-03T03:32:07.197Z,100.00
2023-11-03T03:34:33.967Z,100.00
2023-11-03T03:37:00.869Z,100.00
2023-11-03T03:39:27.490Z,100.00
2023-11-03T03:41:54.031Z,100.00
2023-11-03T03:44:20.639Z,100.00
2023-11-03T03:46:47.122Z,100.00
2023-11-03T03:49:13.691Z,100.00
2023-11-03T03:51:40.438Z,100.00
2023-11-03T03:54:07.181Z,100.00
2023-11-03T03:56:33.649Z,100.00
2023-11-03T03:59:00.431Z,100.00
2023-11-03T04:01:26.910Z,100.00
2023-11-03T04:03:53.492Z,100.00
2023-11-03T04:06:20.018Z,100.00
2023-11-03T04:08:46.524Z,100.00
2023-11-03T04:11:14.162Z,100.00
2023-11-03T04:13:40.925Z,100.00
2023-11-03T04:16:08.045Z,100.00
2023-11-03T04:18:36.047Z,100.00
2023-11-03T04:21:02.887Z,100.00
2023-11-03T04:23:30.266Z,100.00
2023-11-03T04:25:56.843Z,100.00
2023-11-03T04:28:23.447Z,100.00
2023-11-03T04:30:51.504Z,100.00
2023-11-03T04:33:18.036Z,100.00
2023-11-03T04:35:44.652Z,100.00
2023-11-03T04:38:11.926Z,100.00
2023-11-03T04:40:38.508Z,100.00
2023-11-03T04:43:05.068Z,100.00
2023-11-03T04:45:31.621Z,100.00
2023-11-03T04:47:58.211Z,100.00
2023-11-03T04:50:24.710Z,100.00
2023-11-03T04:52:51.224Z,100.00
2023-11-03T04:55:17.704Z,100.00
2023-11-03T04:57:44.393Z,100.00
2023-11-03T05:00:11.860Z,100.00
2023-11-03T05:02:38.378Z,100.00
2023-11-03T05:05:05.881Z,100.00
2023-11-03T05:07:33.852Z,100.00
2023-11-03T05:10:01.112Z,100.00
2023-11-03T05:12:27.598Z,100.00
2023-11-03T05:14:54.166Z,100.00
2023-11-03T05:17:20.682Z,100.00
2023-11-03T05:19:49.252Z,100.00
2023-11-03T05:22:16.424Z,100.00
2023-11-03T05:24:44.452Z,100.00
2023-11-03T05:27:11.264Z,100.00
2023-11-03T05:29:40.069Z,100.00
2023-11-03T05:32:07.809Z,100.00
2023-11-03T05:34:37.029Z,100.00
2023-11-03T05:37:03.674Z,100.00
2023-11-03T05:39:31.872Z,100.00
2023-11-03T05:41:58.763Z,100.00
2023-11-03T05:44:25.397Z,100.00
2023-11-03T05:46:52.473Z,100.00
2023-11-03T05:49:19.142Z,100.00
2023-11-03T05:51:45.724Z,100.00
2023-11-03T05:54:12.288Z,100.00
2023-11-03T05:56:38.780Z,100.00
2023-11-03T05:59:05.348Z,100.00
2023-11-03T06:01:34.880Z,100.00
2023-11-03T06:04:01.592Z,100.00
2023-11-03T06:06:28.637Z,100.00
2023-11-03T06:08:56.433Z,100.00
2023-11-03T06:11:23.733Z,100.00
2023-11-03T06:13:50.364Z,100.00
2023-11-03T06:16:21.347Z,100.00
2023-11-03T06:18:49.732Z,100.00
2023-11-03T06:21:18.392Z,100.00
2023-11-03T06:23:44.883Z,100.00
2023-11-03T06:26:12.660Z,100.00
2023-11-03T06:28:39.263Z,100.00
2023-11-03T06:31:05.877Z,100.00
2023-11-03T06:33:32.429Z,100.00
2023-11-03T06:36:00.430Z,100.00
2023-11-03T06:38:27.199Z,100.00
2023-11-03T06:40:54.506Z,100.00
2023-11-03T06:43:21.095Z,100.00
2023-11-03T06:45:47.669Z,100.00
2023-11-03T06:48:14.208Z,100.00
2023-11-03T06:50:42.970Z,100.00
2023-11-03T06:53:10.070Z,100.00
2023-11-03T06:55:36.763Z,100.00
2023-11-03T06:58:03.608Z,100.00
2023-11-03T07:00:31.145Z,100.00
2023-11-03T07:02:58.269Z,100.00
2023-11-03T07:05:25.313Z,100.00
2023-11-03T07:07:51.845Z,100.00
2023-11-03T07:10:18.713Z,100.00
2023-11-03T07:12:46.385Z,100.00
2023-11-03T07:15:13.326Z,100.00
2023-11-03T07:17:39.940Z,100.00
2023-11-03T07:20:08.973Z,100.00
2023-11-03T07:22:35.574Z,100.00
2023-11-03T07:25:02.135Z,100.00
2023-11-03T07:27:28.812Z,100.00
2023-11-03T07:29:55.271Z,100.00
2023-11-03T07:32:21.800Z,100.00
2023-11-03T07:34:49.350Z,100.00
2023-11-03T07:37:17.085Z,100.00
2023-11-03T07:39:43.592Z,100.00
2023-11-03T07:42:10.947Z,100.00
2023-11-03T07:44:37.466Z,100.00
2023-11-03T07:47:07.789Z,100.00
2023-11-03T07:49:34.393Z,100.00
2023-11-03T07:52:01.808Z,100.00
2023-11-03T07:54:28.439Z,100.00
2023-11-03T07:56:55.023Z,100.00
2023-11-03T07:59:21.523Z,100.00
2023-11-03T08:01:48.788Z,100.00
2023-11-03T08:04:17.535Z,100.00
2023-11-03T08:06:48.484Z,100.00
2023-11-03T08:09:15.574Z,100.00
2023-11-03T08:11:42.300Z,100.00
2023-11-03T08:14:08.786Z,100.00
2023-11-03T08:16:35.305Z,100.00
2023-11-03T08:19:02.393Z,100.00
2023-11-03T08:21:28.966Z,100.00
2023-11-03T08:23:55.505Z,100.00
2023-11-03T08:26:22.117Z,100.00
2023-11-03T08:28:50.538Z,100.00
2023-11-03T08:31:17.176Z,100.00
2023-11-03T08:33:43.711Z,100.00
2023-11-03T08:36:10.461Z,100.00
2023-11-03T08:38:37.712Z,100.00
2023-11-03T08:41:04.404Z,100.00
2023-11-03T08:43:31.520Z,100.00
2023-11-03T08:45:58.040Z,100.00
2023-11-03T08:48:26.358Z,100.00
2023-11-03T08:50:54.051Z,100.00
2023-11-03T08:53:20.570Z,100.00
2023-11-03T08:55:47.058Z,100.00
2023-11-03T08:58:20.778Z,100.00
2023-11-03T09:00:52.606Z,100.00
2023-11-03T09:03:21.555Z,100.00
2023-11-03T09:05:48.821Z,100.00
2023-11-03T09:08:16.431Z,100.00
2023-11-03T09:10:43.064Z,100.00
2023-11-03T09:13:09.818Z,100.00
2023-11-03T09:15:43.167Z,100.00
2023-11-03T09:18:16.622Z,100.00
2023-11-03T09:20:43.216Z,100.00
2023-11-03T09:23:12.589Z,100.00
2023-11-03T09:25:39.103Z,100.00
2023-11-03T09:28:06.187Z,100.00
2023-11-03T09:30:32.748Z,100.00
2023-11-03T09:33:00.109Z,100.00
2023-11-03T09:35:26.750Z,100.00
2023-11-03T09:37:54.906Z,100.00
2023-11-03T09:40:22.136Z,100.00
2023-11-03T09:42:49.581Z,100.00
2023-11-03T09:45:20.571Z,100.00
2023-11-03T09:47:50.283Z,100.00
2023-11-03T09:50:17.369Z,100.00
2023-11-03T09:52:49.186Z,100.00
2023-11-03T09:55:22.751Z,100.00
2023-11-03T09:57:53.127Z,100.00
2023-11-03T10:00:22.573Z,100.00
2023-11-03T10:02:49.617Z,100.00
2023-11-03T10:05:19.921Z,100.00
2023-11-03T10:08:07.937Z,100.00
2023-11-03T10:10:36.366Z,100.00
2023-11-03T10:13:06.256Z,100.00
2023-11-03T10:15:33.262Z,100.00
2023-11-03T10:18:00.231Z,100.00
2023-11-03T10:20:26.903Z,100.00
2023-11-03T10:22:53.754Z,100.00
2023-11-03T10:25:20.526Z,100.00
2023-11-03T10:27:52.826Z,100.00
2023-11-03T10:30:20.392Z,100.00
2023-11-03T10:32:47.678Z,100.00
2023-11-03T10:35:14.776Z,100.00
2023-11-03T10:37:42.694Z,100.00
2023-11-03T10:40:17.253Z,100.00
2023-11-03T10:42:49.163Z,100.00
2023-11-03T10:45:18.707Z,100.00
2023-11-03T10:47:52.184Z,100.00
2023-11-03T10:50:21.710Z,100.00
2023-11-03T10:53:13.858Z,100.00
2023-11-03T10:55:50.594Z,100.00
2023-11-03T10:58:18.820Z,100.00
2023-11-03T11:00:59.353Z,99.15
2023-11-03T11:03:31.998Z,97.51
2023-11-03T11:06:21.778Z,96.38
2023-11-03T11:08:53.279Z,97.33
2023-11-03T11:11:19.785Z,96.16
2023-11-03T11:13:46.284Z,95.72
2023-11-03T11:16:16.159Z,95.00
2023-11-03T11:18:45.285Z,94.26
2023-11-03T11:21:15.855Z,95.61
2023-11-03T11:23:45.511Z,95.83
2023-11-03T11:26:31.503Z,96.40
2023-11-03T11:29:02.224Z,97.03
2023-11-03T11:31:29.460Z,97.33
2023-11-03T11:34:02.127Z,96.75
2023-11-03T11:36:28.937Z,96.78
2023-11-03T11:38:56.228Z,96.74
2023-11-03T11:41:25.584Z,97.22
2023-11-03T11:43:56.445Z,97.47
2023-11-03T11:46:23.617Z,97.86
2023-11-03T11:48:51.623Z,97.91
2023-11-03T11:51:18.371Z,98.12
2023-11-03T11:53:44.877Z,97.88
2023-11-03T11:56:11.450Z,98.04
2023-11-03T11:58:40.669Z,97.26
2023-11-03T12:01:07.670Z,97.40
2023-11-03T12:03:40.539Z,97.70
2023-11-03T12:06:07.872Z,96.68
2023-11-03T12:08:35.810Z,95.96
2023-11-03T12:11:02.828Z,96.17
2023-11-03T12:13:29.411Z,95.56
2023-11-03T12:15:55.949Z,94.80
2023-11-03T12:18:22.574Z,94.72
2023-11-03T12:21:02.555Z,95.58
2023-11-03T12:23:32.376Z,94.32
2023-11-03T12:25:59.847Z,93.28
2023-11-03T12:28:26.842Z,92.09
2023-11-03T12:30:55.940Z,92.17
2023-11-03T12:33:22.574Z,91.13
2023-11-03T12:35:49.459Z,91.94
2023-11-03T12:38:19.308Z,92.29
2023-11-03T12:40:48.501Z,91.28
2023-11-03T12:43:16.210Z,90.90
2023-11-03T12:45:46.070Z,92.06
2023-11-03T12:48:22.430Z,91.15
2023-11-03T12:51:01.134Z,91.48
2023-11-03T12:53:28.270Z,92.06
2023-11-03T12:56:08.113Z,92.51
2023-11-03T12:58:34.611Z,91.39
2023-11-03T13:01:03.368Z,91.64
2023-11-03T13:03:29.890Z,91.32
2023-11-03T13:05:56.909Z,92.41
2023-11-03T13:08:23.735Z,91.65
2023-11-03T13:10:52.552Z,92.42
2023-11-03T13:13:19.544Z,93.06
2023-11-03T13:15:46.097Z,92.38
2023-11-03T13:18:12.706Z,92.42
2023-11-03T13:20:39.572Z,92.73
2023-11-03T13:23:08.344Z,92.69
2023-11-03T13:25:35.082Z,91.30
2023-11-03T13:28:02.662Z,91.74
2023-11-03T13:30:29.236Z,93.01
2023-11-03T13:32:56.255Z,92.47
2023-11-03T13:35:25.656Z,92.90
2023-11-03T13:37:52.505Z,93.27
2023-11-03T13:40:21.862Z,92.32
2023-11-03T13:42:52.580Z,93.29
2023-11-03T13:45:19.404Z,93.15
2023-11-03T13:47:48.075Z,93.70
2023-11-03T13:50:21.280Z,93.53
2023-11-03T13:52:49.859Z,93.22
2023-11-03T13:55:18.439Z,92.98
2023-11-03T13:57:45.161Z,92.10
2023-11-03T14:00:15.833Z,92.29
2023-11-03T14:02:42.655Z,92.04
2023-11-03T14:05:10.200Z,91.81
2023-11-03T14:07:39.021Z,92.01
2023-11-03T14:10:09.507Z,92.02
2023-11-03T14:12:39.517Z,92.62
2023-11-03T14:15:08.267Z,92.13
2023-11-03T14:17:35.444Z,92.06
2023-11-03T14:20:02.155Z,91.99
2023-11-03T14:22:28.769Z,91.13
2023-11-03T14:24:55.256Z,91.75
2023-11-03T14:27:21.855Z,90.66
2023-11-03T14:29:51.220Z,90.59
2023-11-03T14:32:17.879Z,91.07
2023-11-03T14:34:44.457Z,91.23
2023-11-03T14:37:13.248Z,90.87
2023-11-03T14:39:42.389Z,90.81
2023-11-03T14:42:08.995Z,91.49
2023-11-03T14:44:37.742Z,92.01
2023-11-03T14:47:05.391Z,90.84
2023-11-03T14:49:32.266Z,90.85
2023-11-03T14:51:58.880Z,89.02
2023-11-03T14:54:25.579Z,89.34
2023-11-03T14:56:53.395Z,88.99
2023-11-03T14:59:20.095Z,89.63
2023-11-03T15:01:46.985Z,88.63
2023-11-03T15:04:13.681Z,89.09
2023-11-03T15:06:40.246Z,88.85
2023-11-03T15:09:06.795Z,89.27
2023-11-03T15:11:33.729Z,89.82
2023-11-03T15:14:00.733Z,89.18
2023-11-03T15:16:30.368Z,88.92
2023-11-03T15:18:58.380Z,89.24
2023-11-03T15:21:25.026Z,89.26
2023-11-03T15:23:51.689Z,89.01
2023-11-03T15:26:19.370Z,88.72
2023-11-03T15:28:46.085Z,89.22
2023-11-03T15:31:13.238Z,88.65
2023-11-03T15:33:39.947Z,87.88
2023-11-03T15:36:08.504Z,88.01
2023-11-03T15:38:36.313Z,88.68
2023-11-03T15:41:04.300Z,87.47
2023-11-03T15:43:31.109Z,87.95
2023-11-03T15:45:59.095Z,88.22
2023-11-03T15:48:28.991Z,88.67
2023-11-03T15:50:55.885Z,88.48
2023-11-03T15:53:23.104Z,88.88
2023-11-03T15:55:51.551Z,88.58
2023-11-03T15:58:20.117Z,88.49
2023-11-03T16:00:56.373Z,87.89
2023-11-03T16:03:23.712Z,88.38
2023-11-03T16:05:51.368Z,88.33
2023-11-03T16:08:18.138Z,88.70
2023-11-03T16:10:46.011Z,89.27
2023-11-03T16:13:14.882Z,89.93
2023-11-03T16:15:42.030Z,89.90
2023-11-03T16:18:12.376Z,91.07
2023-11-03T16:20:39.070Z,91.24
2023-11-03T16:23:05.699Z,91.00
2023-11-03T16:25:32.281Z,91.17
2023-11-03T16:27:59.428Z,91.83
2023-11-03T16:30:26.632Z,92.81
2023-11-03T16:32:53.879Z,92.66
2023-11-03T16:35:20.981Z,92.51
2023-11-03T16:37:47.796Z,93.31
2023-11-03T16:40:14.762Z,93.66
2023-11-03T16:42:45.300Z,94.43
2023-11-03T16:45:12.887Z,94.03
2023-11-03T16:47:40.736Z,93.79
2023-11-03T16:50:10.531Z,94.70
2023-11-03T16:52:39.214Z,94.43
2023-11-03T16:55:08.146Z,94.70
2023-11-03T16:57:34.794Z,95.41
2023-11-03T17:00:02.665Z,95.22
2023-11-03T17:02:29.274Z,94.63
2023-11-03T17:04:55.932Z,95.17
2023-11-03T17:07:22.556Z,94.82
2023-11-03T17:09:49.124Z,94.48
2023-11-03T17:12:17.119Z,95.34
2023-11-03T17:14:45.817Z,94.76
2023-11-03T17:17:13.991Z,95.63
2023-11-03T17:19:40.837Z,94.95
2023-11-03T17:22:08.607Z,95.34
2023-11-03T17:24:35.400Z,94.98
2023-11-03T17:27:02.174Z,95.12
2023-11-03T17:29:30.138Z,95.29
2023-11-03T17:31:56.935Z,95.40
2023-11-03T17:34:23.694Z,95.40
2023-11-03T17:36:51.666Z,94.89
2023-11-03T17:39:18.655Z,94.79
2023-11-03T17:41:45.369Z,95.07
2023-11-03T17:44:13.755Z,94.72
2023-11-03T17:46:40.414Z,94.96
2023-11-03T17:49:07.209Z,94.41
2023-11-03T17:51:33.776Z,95.10
2023-11-03T17:54:01.770Z,94.85
2023-11-03T17:56:29.745Z,95.00
2023-11-03T17:58:56.236Z,94.21
2023-11-03T18:01:24.414Z,95.02
2023-11-03T18:03:52.101Z,94.28
2023-11-03T18:06:18.775Z,95.18
2023-11-03T18:08:45.282Z,94.85
2023-11-03T18:11:11.928Z,95.19
2023-11-03T18:13:38.517Z,94.85
2023-11-03T18:16:05.648Z,95.11
2023-11-03T18:18:32.262Z,95.08
2023-11-03T18:20:59.391Z,94.66
2023-11-03T18:23:25.959Z,94.59
2023-11-03T18:25:52.587Z,94.78
2023-11-03T18:28:19.164Z,95.71
2023-11-03T18:30:45.651Z,95.81
2023-11-03T18:33:12.413Z,95.56
2023-11-03T18:35:40.189Z,95.69
2023-11-03T18:38:06.732Z,95.46
2023-11-03T18:40:33.980Z,95.62
2023-11-03T18:43:01.327Z,96.47
2023-11-03T18:45:28.019Z,96.02
2023-11-03T18:47:58.003Z,96.02
2023-11-03T18:52:59.510Z,95.81
2023-11-03T18:56:37.732Z,95.67
2023-11-03T18:59:20.494Z,96.00
2023-11-03T19:02:11.655Z,96.05
2023-11-03T19:08:45.554Z,95.52
2023-11-03T19:11:12.187Z,95.92
2023-11-03T19:13:39.923Z,95.85
2023-11-03T19:16:06.992Z,96.62
2023-11-03T19:18:36.924Z,96.58
2023-11-03T19:21:07.742Z,96.62
2023-11-03T19:23:35.985Z,96.29
2023-11-03T19:26:02.777Z,96.91
2023-11-03T19:28:33.096Z,97.01
2023-11-03T19:31:03.643Z,97.01
2023-11-03T19:33:31.779Z,97.37
2023-11-03T19:35:58.426Z,97.87
2023-11-03T19:38:26.141Z,97.60
2023-11-03T19:40:52.701Z,98.11
2023-11-03T19:43:19.311Z,98.40
2023-11-03T19:45:46.045Z,98.74
2023-11-03T19:48:12.788Z,98.79
2023-11-03T19:50:39.550Z,98.95
2023-11-03T19:53:06.141Z,99.00
2023-11-03T19:55:34.418Z,99.82
2023-11-03T19:58:00.993Z,99.56
2023-11-03T20:00:30.506Z,99.44
2023-11-03T20:02:57.527Z,99.44
2023-11-03T20:05:25.135Z,98.99
2023-11-03T20:07:52.340Z,99.13
2023-11-03T20:10:18.834Z,99.21
2023-11-03T20:12:45.476Z,99.17
2023-11-03T20:15:12.661Z,99.19
2023-11-03T20:17:39.263Z,99.18
2023-11-03T20:20:10.099Z,99.53
2023-11-03T20:22:36.778Z,99.31
2023-11-03T20:25:03.757Z,99.54
2023-11-03T20:27:32.121Z,99.38
2023-11-03T20:30:00.265Z,99.51
2023-11-03T20:32:26.815Z,99.06
2023-11-03T20:34:53.658Z,99.23
2023-11-03T20:37:20.276Z,99.17
2023-11-03T20:39:47.165Z,99.46
2023-11-03T20:42:15.235Z,99.01
2023-11-03T20:44:42.751Z,99.36
2023-11-03T20:47:09.272Z,99.40
2023-11-03T20:49:36.374Z,99.51
2023-11-03T20:52:03.078Z,99.80
2023-11-03T20:54:30.643Z,99.27
2023-11-03T20:56:57.203Z,99.33
2023-11-03T20:59:24.186Z,99.66
2023-11-03T21:01:51.982Z,99.50
2023-11-03T21:04:20.529Z,99.55
2023-11-03T21:06:48.399Z,99.63
2023-11-03T21:09:15.959Z,99.98
2023-11-03T21:11:42.963Z,99.56
2023-11-03T21:14:09.529Z,99.73
2023-11-03T21:16:36.075Z,100.00
2023-11-03T21:19:04.054Z,100.00
2023-11-03T21:21:32.032Z,100.00
2023-11-03T21:23:58.636Z,100.00
2023-11-03T21:26:26.395Z,100.00
2023-11-03T21:28:52.876Z,100.00
2023-11-03T21:31:19.472Z,100.00
2023-11-03T21:33:48.077Z,100.00
2023-11-03T21:36:25.987Z,100.00
2023-11-03T21:38:56.962Z,100.00
2023-11-03T21:41:23.847Z,100.00
2023-11-03T21:43:50.509Z,100.00
2023-11-03T21:46:24.641Z,100.00
2023-11-03T21:48:53.206Z,100.00
2023-11-03T21:51:20.826Z,100.00
2023-11-03T21:53:48.004Z,100.00
2023-11-03T21:56:15.304Z,100.00
2023-11-03T21:58:43.140Z,100.00
2023-11-03T22:01:09.923Z,100.00
2023-11-03T22:03:37.764Z,100.00
2023-11-03T22:06:05.966Z,100.00
2023-11-03T22:08:32.678Z,100.00
2023-11-03T22:11:00.965Z,100.00
2023-11-03T22:13:27.541Z,100.00
2023-11-03T22:15:54.037Z,100.00
2023-11-03T22:18:21.306Z,100.00
2023-11-03T22:20:47.951Z,100.00
2023-11-03T22:23:14.522Z,100.00
2023-11-03T22:25:41.444Z,100.00
2023-11-03T22:28:08.769Z,100.00
2023-11-03T22:30:38.040Z,100.00
2023-11-03T22:33:04.739Z,100.00
2023-11-03T22:35:31.283Z,100.00
2023-11-03T22:37:57.834Z,100.00
2023-11-03T22:40:24.319Z,100.00
2023-11-03T22:42:50.979Z,100.00
2023-11-03T22:45:17.622Z,100.00
2023-11-03T22:47:45.048Z,100.00
2023-11-03T22:50:14.641Z,100.00
2023-11-03T22:52:42.480Z,100.00
2023-11-03T22:55:11.514Z,100.00
2023-11-03T22:57:38.352Z,100.00
2023-11-03T23:00:11.196Z,100.00
2023-11-03T23:02:40.311Z,100.00
2023-11-03T23:05:07.704Z,100.00
2023-11-03T23:07:34.714Z,100.00
2023-11-03T23:10:01.590Z,100.00
2023-11-03T23:12:28.153Z,100.00
2023-11-03T23:14:54.741Z,100.00
2023-11-03T23:17:21.221Z,100.00
2023-11-03T23:19:47.923Z,100.00
2023-11-03T23:22:14.403Z,100.00
2023-11-03T23:24:40.952Z,100.00
2023-11-03T23:27:07.619Z,100.00
2023-11-03T23:29:34.157Z,100.00
2023-11-03T23:32:00.676Z,100.00
2023-11-03T23:34:27.358Z,100.00
2023-11-03T23:36:53.943Z,100.00
2023-11-03T23:39:20.922Z,100.00
2023-11-03T23:41:47.439Z,100.00
2023-11-03T23:44:13.903Z,100.00
2023-11-03T23:46:40.607Z,100.00
2023-11-03T23:49:07.190Z,100.00
2023-11-03T23:51:33.766Z,100.00
2023-11-03T23:54:00.273Z,100.00
2023-11-03T23:56:26.866Z,100.00
2023-11-03T23:58:53.420Z,100.00
